createdAt,value
2019-04-06T00:00:20.672Z,8.74
2019-04-06T00:02:50.218Z,8.80
2019-04-06T00:05:19.238Z,8.84
2019-04-06T00:07:48.521Z,8.75
2019-04-06T00:10:17.814Z,8.74
2019-04-06T00:12:47.358Z,8.85
2019-04-06T00:15:16.987Z,8.82
2019-04-06T00:17:46.166Z,8.81
2019-04-06T00:20:15.987Z,8.77
2019-04-06T00:22:45.835Z,8.77
2019-04-06T00:25:15.500Z,8.64
2019-04-06T00:27:45.088Z,8.68
2019-04-06T00:30:14.944Z,8.70
2019-04-06T00:32:46.075Z,8.62
2019-04-06T00:35:15.759Z,8.59
2019-04-06T00:37:45.202Z,8.58
2019-04-06T00:40:14.993Z,8.64
2019-04-06T00:42:44.617Z,8.68
2019-04-06T00:45:14.360Z,8.73
2019-04-06T00:47:43.836Z,8.79
2019-04-06T00:50:13.646Z,8.75
2019-04-06T00:52:43.135Z,8.64
2019-04-06T00:55:12.818Z,8.70
2019-04-06T00:57:42.014Z,8.64
2019-04-06T01:00:11.446Z,8.59
2019-04-06T01:02:40.980Z,8.70
2019-04-06T01:05:10.370Z,8.78
2019-04-06T01:07:39.718Z,8.95
2019-04-06T01:10:09.257Z,8.85
2019-04-06T01:12:38.778Z,8.80
2019-04-06T01:15:08.920Z,8.80
2019-04-06T01:17:38.809Z,8.91
2019-04-06T01:20:08.518Z,8.85
2019-04-06T01:22:38.243Z,8.75
2019-04-06T01:25:08.088Z,8.68
2019-04-06T01:27:37.804Z,8.65
2019-04-06T01:30:08.382Z,8.64
2019-04-06T01:32:38.023Z,8.64
2019-04-06T01:35:07.724Z,8.59
2019-04-06T01:37:37.320Z,8.56
2019-04-06T01:40:07.289Z,8.55
2019-04-06T01:42:36.549Z,8.69
2019-04-06T01:45:07.259Z,8.59
2019-04-06T01:47:36.928Z,8.65
2019-04-06T01:50:06.701Z,8.77
2019-04-06T01:52:36.342Z,8.79
2019-04-06T01:55:06.443Z,8.77
2019-04-06T01:57:36.244Z,8.88
2019-04-06T02:00:08.954Z,8.83
2019-04-06T02:02:40.059Z,8.81
2019-04-06T02:05:10.128Z,8.79
2019-04-06T02:07:39.652Z,8.79
2019-04-06T02:10:09.766Z,8.80
2019-04-06T02:12:38.834Z,8.71
2019-04-06T02:15:08.734Z,8.63
2019-04-06T02:17:38.211Z,8.47
2019-04-06T02:20:07.932Z,8.46
2019-04-06T02:22:37.384Z,8.39
2019-04-06T02:25:07.306Z,8.36
2019-04-06T02:27:37.035Z,8.37
2019-04-06T02:30:09.737Z,8.41
2019-04-06T02:32:40.944Z,8.42
2019-04-06T02:35:12.368Z,8.49
2019-04-06T02:37:43.577Z,8.55
2019-04-06T02:40:12.979Z,8.59
2019-04-06T02:42:47.157Z,8.63
2019-04-06T02:45:16.917Z,8.62
2019-04-06T02:47:46.683Z,8.69
2019-04-06T02:50:15.982Z,8.63
2019-04-06T02:52:46.008Z,8.61
2019-04-06T02:55:15.696Z,8.61
2019-04-06T02:57:44.638Z,8.56
2019-04-06T03:00:14.393Z,8.46
2019-04-06T03:02:43.597Z,8.39
2019-04-06T03:05:13.979Z,8.43
2019-04-06T03:07:43.731Z,8.47
2019-04-06T03:10:13.159Z,8.51
2019-04-06T03:12:42.661Z,8.56
2019-04-06T03:15:12.355Z,8.62
2019-04-06T03:17:41.888Z,8.62
2019-04-06T03:20:11.127Z,8.51
2019-04-06T03:22:40.669Z,8.47
2019-04-06T03:25:10.387Z,8.38
2019-04-06T03:27:39.976Z,8.46
2019-04-06T03:30:12.473Z,8.40
2019-04-06T03:32:41.761Z,8.28
2019-04-06T03:35:11.518Z,8.20
2019-04-06T03:37:41.006Z,8.18
2019-04-06T03:40:11.077Z,8.07
2019-04-06T03:42:40.740Z,7.91
2019-04-06T03:45:10.769Z,7.87
2019-04-06T03:47:40.506Z,7.93
2019-04-06T03:50:10.379Z,7.90
2019-04-06T03:52:39.567Z,7.78
2019-04-06T03:55:09.878Z,7.66
2019-04-06T03:57:39.146Z,7.63
2019-04-06T04:00:09.174Z,7.63
2019-04-06T04:02:38.678Z,7.56
2019-04-06T04:05:08.620Z,7.59
2019-04-06T04:07:38.222Z,7.49
2019-04-06T04:10:09.020Z,7.42
2019-04-06T04:12:38.393Z,7.38
2019-04-06T04:15:07.825Z,7.38
2019-04-06T04:17:37.373Z,7.38
2019-04-06T04:20:07.735Z,7.36
2019-04-06T04:22:37.289Z,7.38
2019-04-06T04:25:07.051Z,7.31
2019-04-06T04:27:38.120Z,7.27
2019-04-06T04:30:08.522Z,7.26
2019-04-06T04:32:37.927Z,7.18
2019-04-06T04:35:07.684Z,7.11
2019-04-06T04:37:37.478Z,7.10
2019-04-06T04:40:07.299Z,7.07
2019-04-06T04:42:36.889Z,7.08
2019-04-06T04:45:06.648Z,7.14
2019-04-06T04:47:36.189Z,7.13
2019-04-06T04:50:07.478Z,7.18
2019-04-06T04:52:36.842Z,7.23
2019-04-06T04:55:07.108Z,7.18
2019-04-06T04:57:41.199Z,7.18
2019-04-06T05:00:08.210Z,7.17
2019-04-06T05:02:37.362Z,7.17
2019-04-06T05:05:09.404Z,7.20
2019-04-06T05:07:39.519Z,7.20
2019-04-06T05:10:09.613Z,7.20
2019-04-06T05:12:38.847Z,7.20
2019-04-06T05:15:11.675Z,7.28
2019-04-06T05:17:41.011Z,7.34
2019-04-06T05:20:10.763Z,7.38
2019-04-06T05:22:40.333Z,7.36
2019-04-06T05:25:10.324Z,7.35
2019-04-06T05:27:50.760Z,7.44
2019-04-06T05:30:11.547Z,7.47
2019-04-06T05:32:41.013Z,7.56
2019-04-06T05:35:10.842Z,7.50
2019-04-06T05:37:40.297Z,7.63
2019-04-06T05:40:10.109Z,7.74
2019-04-06T05:42:39.564Z,7.76
2019-04-06T05:45:10.297Z,7.81
2019-04-06T05:47:39.923Z,7.97
2019-04-06T05:50:09.370Z,8.12
2019-04-06T05:52:38.588Z,8.35
2019-04-06T05:55:08.291Z,8.49
2019-04-06T05:57:38.086Z,8.64
2019-04-06T06:00:10.478Z,8.82
2019-04-06T06:02:41.302Z,8.64
2019-04-06T06:05:11.480Z,8.64
2019-04-06T06:07:41.713Z,8.68
2019-04-06T06:10:12.049Z,8.68
2019-04-06T06:12:41.925Z,9.10
2019-04-06T06:15:12.428Z,9.21
2019-04-06T06:17:42.350Z,8.88
2019-04-06T06:20:12.793Z,8.83
2019-04-06T06:22:42.809Z,9.16
2019-04-06T06:25:12.548Z,9.09
2019-04-06T06:27:42.023Z,9.49
2019-04-06T06:30:11.930Z,9.55
2019-04-06T06:32:41.453Z,9.63
2019-04-06T06:35:11.146Z,9.85
2019-04-06T06:37:40.638Z,9.88
2019-04-06T06:40:11.727Z,9.60
2019-04-06T06:42:41.344Z,9.35
2019-04-06T06:45:10.915Z,9.68
2019-04-06T06:47:40.639Z,9.37
2019-04-06T06:50:10.561Z,9.39
2019-04-06T06:52:40.198Z,9.35
2019-04-06T06:55:11.634Z,9.66
2019-04-06T06:57:44.107Z,9.84
2019-04-06T07:00:13.902Z,9.67
2019-04-06T07:02:43.484Z,9.37
2019-04-06T07:05:12.960Z,9.35
2019-04-06T07:07:44.302Z,9.49
2019-04-06T07:10:13.884Z,9.57
2019-04-06T07:12:43.100Z,10.34
2019-04-06T07:15:12.796Z,10.14
2019-04-06T07:17:42.424Z,10.56
2019-04-06T07:20:12.546Z,9.97
2019-04-06T07:22:42.249Z,10.60
2019-04-06T07:25:11.894Z,10.90
2019-04-06T07:27:41.395Z,10.88
2019-04-06T07:30:10.582Z,13.10
2019-04-06T07:32:40.376Z,13.08
2019-04-06T07:35:10.020Z,13.03
2019-04-06T07:37:39.761Z,14.09
2019-04-06T07:40:09.467Z,15.10
2019-04-06T07:42:38.974Z,14.65
2019-04-06T07:45:09.150Z,13.72
2019-04-06T07:47:38.748Z,13.33
2019-04-06T07:50:10.213Z,14.21
2019-04-06T07:52:39.828Z,15.49
2019-04-06T07:55:09.567Z,13.99
2019-04-06T07:57:38.956Z,14.07
2019-04-06T08:00:09.368Z,14.22
2019-04-06T08:02:38.865Z,14.08
2019-04-06T08:05:09.084Z,15.23
2019-04-06T08:07:38.496Z,15.82
2019-04-06T08:10:08.824Z,17.33
2019-04-06T08:12:38.547Z,17.26
2019-04-06T08:15:08.424Z,15.78
2019-04-06T08:17:38.047Z,17.14
2019-04-06T08:20:08.570Z,18.34
2019-04-06T08:22:38.184Z,17.29
2019-04-06T08:25:08.180Z,16.18
2019-04-06T08:27:37.724Z,15.00
2019-04-06T08:30:09.665Z,16.31
2019-04-06T08:32:40.476Z,15.84
2019-04-06T08:35:10.367Z,16.69
2019-04-06T08:37:39.710Z,17.08
2019-04-06T08:40:09.563Z,16.89
2019-04-06T08:42:39.066Z,14.79
2019-04-06T08:45:08.965Z,15.84
2019-04-06T08:47:38.495Z,16.56
2019-04-06T08:50:08.780Z,17.32
2019-04-06T08:52:38.920Z,17.37
2019-04-06T08:55:16.931Z,17.19
2019-04-06T08:57:46.510Z,17.64
2019-04-06T09:00:16.416Z,15.62
2019-04-06T09:02:47.757Z,14.54
2019-04-06T09:05:17.388Z,14.01
2019-04-06T09:07:46.988Z,13.63
2019-04-06T09:10:16.658Z,14.13
2019-04-06T09:12:46.314Z,14.11
2019-04-06T09:15:16.998Z,14.50
2019-04-06T09:17:46.738Z,14.38
2019-04-06T09:20:17.890Z,14.30
2019-04-06T09:22:47.399Z,14.96
2019-04-06T09:25:16.994Z,16.14
2019-04-06T09:27:46.613Z,16.08
2019-04-06T09:30:16.416Z,13.88
2019-04-06T09:32:45.998Z,13.57
2019-04-06T09:35:15.587Z,13.88
2019-04-06T09:37:45.167Z,13.53
2019-04-06T09:40:15.138Z,13.99
2019-04-06T09:42:44.805Z,13.83
2019-04-06T09:45:16.035Z,13.53
2019-04-06T09:47:47.307Z,13.69
2019-04-06T09:50:18.789Z,14.37
2019-04-06T09:52:52.442Z,14.28
2019-04-06T09:55:23.588Z,13.71
2019-04-06T09:57:54.771Z,13.83
2019-04-06T10:00:24.391Z,13.90
2019-04-06T10:02:59.959Z,13.65
2019-04-06T10:05:31.305Z,14.39
2019-04-06T10:08:02.673Z,14.22
2019-04-06T10:10:34.055Z,14.27
2019-04-06T10:13:05.384Z,14.29
2019-04-06T10:15:36.566Z,14.29
2019-04-06T10:18:07.218Z,13.69
2019-04-06T10:20:38.549Z,13.86
2019-04-06T10:23:09.586Z,14.14
2019-04-06T10:25:43.497Z,14.86
2019-04-06T10:28:14.134Z,14.53
2019-04-06T10:30:45.315Z,15.16
2019-04-06T10:33:16.762Z,15.29
2019-04-06T10:35:53.104Z,15.12
2019-04-06T10:38:22.635Z,14.46
2019-04-06T10:40:52.139Z,14.18
2019-04-06T10:43:23.238Z,14.57
2019-04-06T10:45:53.786Z,15.08
2019-04-06T10:48:26.488Z,15.22
2019-04-06T10:50:59.486Z,15.33
2019-04-06T10:53:30.883Z,14.99
2019-04-06T10:56:02.997Z,15.97
2019-04-06T10:58:34.273Z,16.34
2019-04-06T11:01:09.281Z,15.03
2019-04-06T11:03:40.472Z,15.48
2019-04-06T11:06:11.797Z,16.12
2019-04-06T11:08:42.350Z,15.59
2019-04-06T11:11:19.363Z,15.04
2019-04-06T11:13:48.671Z,15.73
2019-04-06T11:16:19.906Z,15.77
2019-04-06T11:18:56.828Z,15.85
2019-04-06T11:21:28.147Z,15.37
2019-04-06T11:23:58.518Z,16.48
2019-04-06T11:26:30.393Z,15.86
2019-04-06T11:29:01.554Z,15.86
2019-04-06T11:31:32.783Z,15.38
2019-04-06T11:34:03.930Z,15.75
2019-04-06T11:36:35.378Z,16.53
2019-04-06T11:39:09.017Z,16.93
2019-04-06T11:41:42.289Z,15.97
2019-04-06T11:44:13.454Z,16.67
2019-04-06T11:46:44.712Z,15.70
2019-04-06T11:49:15.992Z,16.20
2019-04-06T11:51:50.274Z,16.74
2019-04-06T11:54:20.908Z,17.39
2019-04-06T11:56:52.157Z,17.48
2019-04-06T11:59:23.378Z,17.24
2019-04-06T12:01:54.545Z,17.37
2019-04-06T12:04:26.066Z,17.68
2019-04-06T12:07:01.703Z,16.30
2019-04-06T12:09:33.839Z,17.02
2019-04-06T12:12:05.012Z,16.56
2019-04-06T12:14:36.141Z,16.69
2019-04-06T12:17:07.810Z,17.33
2019-04-06T12:19:37.089Z,16.40
2019-04-06T12:22:11.147Z,16.90
2019-04-06T12:24:44.115Z,16.05
2019-04-06T12:27:15.213Z,16.08
2019-04-06T12:29:46.063Z,16.27
2019-04-06T12:32:17.331Z,16.67
2019-04-06T12:34:48.563Z,16.06
2019-04-06T12:37:18.974Z,16.28
2019-04-06T12:39:53.057Z,16.31
2019-04-06T12:42:23.009Z,16.08
2019-04-06T12:44:54.156Z,16.15
2019-04-06T12:47:27.963Z,16.36
2019-04-06T12:49:59.373Z,16.80
2019-04-06T12:52:30.685Z,16.77
2019-04-06T12:55:01.905Z,17.13
2019-04-06T12:57:33.136Z,16.84
2019-04-06T13:00:04.357Z,16.25
2019-04-06T13:02:35.672Z,16.46
2019-04-06T13:05:12.384Z,16.67
2019-04-06T13:07:42.412Z,17.22
2019-04-06T13:10:13.634Z,17.05
2019-04-06T13:12:44.632Z,17.78
2019-04-06T13:15:18.184Z,17.19
2019-04-06T13:17:49.545Z,17.13
2019-04-06T13:20:20.802Z,17.09
2019-04-06T13:22:51.999Z,16.80
2019-04-06T13:25:22.439Z,16.79
2019-04-06T13:27:52.849Z,16.73
2019-04-06T13:30:24.103Z,16.77
2019-04-06T13:32:57.249Z,16.65
2019-04-06T13:35:32.523Z,17.28
2019-04-06T13:38:03.869Z,17.65
2019-04-06T13:40:34.929Z,17.90
2019-04-06T13:43:05.823Z,17.27
2019-04-06T13:45:40.373Z,17.29
2019-04-06T13:48:11.552Z,17.74
2019-04-06T13:50:42.997Z,17.91
2019-04-06T13:53:13.334Z,17.85
2019-04-06T13:55:44.487Z,17.71
2019-04-06T13:58:15.873Z,17.98
2019-04-06T14:00:47.811Z,18.04
2019-04-06T14:03:21.515Z,17.73
2019-04-06T14:05:51.973Z,18.04
2019-04-06T14:08:25.132Z,18.28
2019-04-06T14:10:56.265Z,17.74
2019-04-06T14:13:27.813Z,18.14
2019-04-06T14:15:58.320Z,18.36
2019-04-06T14:18:29.564Z,18.58
2019-04-06T14:21:03.557Z,18.70
2019-04-06T14:23:32.953Z,19.03
2019-04-06T14:26:03.207Z,19.26
2019-04-06T14:28:34.415Z,19.25
2019-04-06T14:31:04.953Z,19.46
2019-04-06T14:33:37.200Z,19.33
2019-04-06T14:36:11.037Z,19.36
2019-04-06T14:38:44.959Z,19.08
2019-04-06T14:41:16.783Z,19.28
2019-04-06T14:43:48.192Z,19.39
2019-04-06T14:46:19.473Z,19.43
2019-04-06T14:48:51.111Z,19.88
2019-04-06T14:51:22.662Z,19.88
2019-04-06T14:53:53.753Z,19.86
2019-04-06T14:56:24.919Z,19.86
2019-04-06T14:58:56.177Z,19.71
2019-04-06T15:01:38.473Z,19.71
2019-04-06T15:04:00.413Z,19.87
2019-04-06T15:06:34.363Z,19.64
2019-04-06T15:09:09.898Z,19.69
2019-04-06T15:11:40.990Z,19.64
2019-04-06T15:14:14.928Z,19.71
2019-04-06T15:16:46.446Z,19.73
2019-04-06T15:19:18.233Z,19.65
2019-04-06T15:21:49.486Z,19.73
2019-04-06T15:24:21.175Z,19.86
2019-04-06T15:26:52.345Z,19.79
2019-04-06T15:29:26.378Z,19.43
2019-04-06T15:31:57.655Z,19.55
2019-04-06T15:34:28.341Z,19.22
2019-04-06T15:37:00.063Z,18.89
2019-04-06T15:39:30.455Z,18.72
2019-04-06T15:42:01.590Z,18.59
2019-04-06T15:44:32.756Z,18.51
2019-04-06T15:47:03.930Z,18.46
2019-04-06T15:49:35.112Z,18.28
2019-04-06T15:52:12.245Z,18.23
2019-04-06T15:54:39.274Z,18.10
2019-04-06T15:57:11.203Z,18.24
2019-04-06T15:59:47.860Z,18.06
2019-04-06T16:02:21.500Z,18.08
2019-04-06T16:04:55.415Z,18.06
2019-04-06T16:07:33.816Z,18.05
2019-04-06T16:10:06.547Z,18.04
2019-04-06T16:12:37.765Z,18.07
2019-04-06T16:15:13.957Z,17.97
2019-04-06T16:17:45.561Z,17.87
2019-04-06T16:20:17.298Z,17.85
2019-04-06T16:22:49.096Z,17.86
2019-04-06T16:25:20.316Z,17.86
2019-04-06T16:27:57.019Z,17.89
2019-04-06T16:30:37.444Z,17.78
2019-04-06T16:33:09.622Z,17.82
2019-04-06T16:35:40.791Z,17.78
2019-04-06T16:38:12.233Z,17.87
2019-04-06T16:40:41.620Z,17.83
2019-04-06T16:43:13.140Z,17.81
2019-04-06T16:45:46.895Z,17.83
2019-04-06T16:48:27.701Z,17.73
2019-04-06T16:50:58.922Z,17.73
2019-04-06T16:53:30.069Z,17.73
2019-04-06T16:56:01.249Z,17.60
2019-04-06T16:58:31.688Z,17.46
2019-04-06T17:01:02.902Z,17.35
2019-04-06T17:03:34.044Z,17.35
2019-04-06T17:06:08.158Z,17.30
2019-04-06T17:08:39.417Z,17.29
2019-04-06T17:11:10.718Z,17.31
2019-04-06T17:13:41.972Z,17.24
2019-04-06T17:16:12.394Z,17.18
2019-04-06T17:18:43.714Z,17.15
2019-04-06T17:21:17.028Z,17.06
2019-04-06T17:23:47.911Z,16.92
2019-04-06T17:26:19.203Z,16.95
2019-04-06T17:28:50.395Z,16.85
2019-04-06T17:31:21.844Z,16.81
2019-04-06T17:33:53.197Z,16.74
2019-04-06T17:36:22.499Z,16.63
2019-04-06T17:38:53.756Z,16.45
2019-04-06T17:41:25.431Z,16.49
2019-04-06T17:43:56.667Z,16.38
2019-04-06T17:46:27.984Z,16.40
2019-04-06T17:48:59.234Z,16.40
2019-04-06T17:51:30.396Z,16.28
2019-04-06T17:54:01.633Z,16.24
2019-04-06T17:56:33.253Z,16.27
2019-04-06T17:59:03.025Z,16.02
2019-04-06T18:01:34.295Z,15.80
2019-04-06T18:04:05.447Z,15.74
2019-04-06T18:06:37.330Z,15.77
2019-04-06T18:09:10.274Z,15.62
2019-04-06T18:11:41.358Z,15.45
2019-04-06T18:14:11.173Z,15.42
2019-04-06T18:16:40.807Z,15.30
2019-04-06T18:19:10.370Z,15.26
2019-04-06T18:21:39.989Z,15.27
2019-04-06T18:24:09.542Z,15.24
2019-04-06T18:26:38.712Z,15.19
2019-04-06T18:29:08.531Z,15.36
2019-04-06T18:31:39.762Z,15.37
2019-04-06T18:34:09.370Z,15.36
2019-04-06T18:36:40.552Z,15.37
2019-04-06T18:39:11.839Z,15.39
2019-04-06T18:41:41.391Z,15.39
2019-04-06T18:44:11.304Z,15.36
2019-04-06T18:46:40.780Z,15.39
2019-04-06T18:49:10.256Z,15.30
2019-04-06T18:51:39.717Z,15.31
2019-04-06T18:54:09.896Z,15.31
2019-04-06T18:56:39.430Z,15.11
2019-04-06T18:59:10.476Z,15.10
2019-04-06T19:01:40.404Z,15.11
2019-04-06T19:04:10.447Z,15.10
2019-04-06T19:06:40.033Z,15.13
2019-04-06T19:09:20.780Z,15.12
2019-04-06T19:11:53.241Z,15.03
2019-04-06T19:14:13.107Z,15.03
2019-04-06T19:16:42.563Z,15.02
2019-04-06T19:19:12.595Z,14.93
2019-04-06T19:21:43.240Z,15.03
2019-04-06T19:24:13.786Z,14.88
2019-04-06T19:26:43.477Z,14.89
2019-04-06T19:29:16.090Z,14.89
2019-04-06T19:31:46.009Z,14.78
2019-04-06T19:34:15.774Z,14.71
2019-04-06T19:36:45.419Z,14.63
2019-04-06T19:39:15.182Z,14.78
2019-04-06T19:41:44.192Z,14.68
2019-04-06T19:44:13.535Z,14.60
2019-04-06T19:46:43.295Z,14.59
2019-04-06T19:49:13.026Z,14.70
2019-04-06T19:51:43.017Z,14.76
2019-04-06T19:54:12.317Z,14.87
2019-04-06T19:56:41.511Z,14.96
2019-04-06T19:59:12.948Z,14.95
2019-04-06T20:01:42.490Z,15.03
2019-04-06T20:04:12.055Z,15.00
2019-04-06T20:06:42.078Z,14.94
2019-04-06T20:09:11.728Z,14.82
2019-04-06T20:11:41.248Z,14.80
2019-04-06T20:14:10.781Z,14.78
2019-04-06T20:16:40.726Z,14.78
2019-04-06T20:19:10.319Z,14.77
2019-04-06T20:21:39.819Z,14.74
2019-04-06T20:24:09.612Z,14.75
2019-04-06T20:26:40.094Z,14.55
2019-04-06T20:29:09.903Z,14.60
2019-04-06T20:31:39.646Z,14.55
2019-04-06T20:34:09.094Z,14.34
2019-04-06T20:36:38.610Z,14.27
2019-04-06T20:39:09.346Z,14.35
2019-04-06T20:41:38.851Z,14.36
2019-04-06T20:44:08.643Z,14.48
2019-04-06T20:46:38.680Z,14.56
2019-04-06T20:49:09.201Z,14.49
2019-04-06T20:51:38.985Z,14.48
2019-04-06T20:54:09.061Z,14.41
2019-04-06T20:56:38.744Z,14.43
2019-04-06T20:59:07.962Z,14.44
2019-04-06T21:01:37.315Z,14.36
2019-04-06T21:04:06.943Z,14.34
2019-04-06T21:06:37.045Z,14.34
2019-04-06T21:09:09.177Z,14.27
2019-04-06T21:11:39.270Z,14.21
2019-04-06T21:14:09.074Z,14.29
2019-04-06T21:16:38.938Z,14.16
2019-04-06T21:19:09.137Z,14.11
2019-04-06T21:21:38.700Z,14.16
2019-04-06T21:24:08.091Z,13.99
2019-04-06T21:26:38.032Z,14.11
2019-04-06T21:29:07.966Z,13.99
2019-04-06T21:31:37.565Z,13.85
2019-04-06T21:34:11.869Z,13.89
2019-04-06T21:36:38.304Z,13.69
2019-04-06T21:39:08.338Z,13.60
2019-04-06T21:41:37.483Z,13.58
2019-04-06T21:44:07.542Z,13.60
2019-04-06T21:46:39.257Z,13.56
2019-04-06T21:49:11.273Z,13.49
2019-04-06T21:51:40.825Z,13.42
2019-04-06T21:54:10.114Z,13.38
2019-04-06T21:56:39.578Z,13.19
2019-04-06T21:59:09.150Z,13.20
2019-04-06T22:01:40.047Z,13.15
2019-04-06T22:04:17.563Z,13.27
2019-04-06T22:06:41.364Z,13.15
2019-04-06T22:09:12.743Z,13.06
2019-04-06T22:11:42.448Z,12.98
2019-04-06T22:14:12.476Z,12.80
2019-04-06T22:16:43.049Z,12.77
2019-04-06T22:19:12.791Z,12.61
2019-04-06T22:21:42.903Z,12.52
2019-04-06T22:24:12.455Z,12.51
2019-04-06T22:26:41.982Z,12.51
2019-04-06T22:29:11.795Z,12.68
2019-04-06T22:31:41.552Z,12.82
2019-04-06T22:36:51.586Z,12.78
2019-04-06T22:39:21.542Z,12.71
2019-04-06T22:41:50.961Z,12.67
2019-04-06T22:44:21.038Z,12.62
2019-04-06T22:46:51.411Z,12.55
2019-04-06T22:49:20.575Z,12.44
2019-04-06T22:51:50.056Z,12.37
2019-04-06T22:54:19.668Z,12.49
2019-04-06T22:56:49.565Z,12.54
2019-04-06T22:59:19.050Z,12.56
2019-04-06T23:01:49.436Z,12.54
2019-04-06T23:04:20.666Z,12.50
2019-04-06T23:06:52.455Z,12.50
2019-04-06T23:09:22.481Z,12.48
2019-04-06T23:11:52.585Z,12.49
2019-04-06T23:14:22.459Z,12.42
2019-04-06T23:16:51.948Z,12.27
2019-04-06T23:19:21.456Z,12.20
2019-04-06T23:21:51.010Z,12.29
2019-04-06T23:24:20.475Z,12.32
2019-04-06T23:26:49.952Z,12.27
2019-04-06T23:29:19.537Z,12.15
2019-04-06T23:31:49.528Z,12.09
2019-04-06T23:34:19.222Z,12.22
2019-04-06T23:36:48.195Z,12.19
2019-04-06T23:39:18.398Z,12.20
2019-04-06T23:41:48.401Z,12.14
2019-04-06T23:44:18.452Z,12.03
2019-04-06T23:46:48.164Z,11.96
2019-04-06T23:49:18.186Z,12.04
2019-04-06T23:51:47.765Z,12.07
2019-04-06T23:54:17.281Z,12.15
2019-04-06T23:56:47.498Z,12.20
2019-04-06T23:59:17.607Z,12.18
